NCAR-RAP Real-Time Weather Data

Output produced by METARs form (08 May 2021  16:56 UTC)
found at http://weather.rap.ucar.edu/surface/
 
KOMA 081652Z 11012G22KT 10SM OVC041 13/01 A2986 RMK AO2 PK WND 10028/1608 SLP110 T01280011
KOMA 081552Z 12012G22KT 10SM OVC043 12/01 A2988 RMK AO2 SLP116 T01220006
KOMA 081452Z 11019G25KT 10SM OVC048 12/01 A2989 RMK AO2 PK WND 12030/1411 SLP119 T01220006 58009
KOMA 081352Z 12017G25KT 10SM OVC060 12/M01 A2991 RMK AO2 SLP125 T01221006
KOMA 081252Z 11015G23KT 10SM OVC060 12/M01 A2991 RMK AO2 PK WND 11026/1214 SLP127 T01221011
KOMA 081152Z 12015G23KT 10SM OVC065 13/M02 A2991 RMK AO2 SLP127 T01281017 10150 20128 58010
KOMA 081052Z 12012KT 10SM OVC070 13/M03 A2994 RMK AO2 LTG DSNT SE SLP136 T01281028
KOMA 080952Z 10015G22KT 10SM OVC070 13/M04 A2994 RMK AO2 SLP137 T01331039
KOMA 080852Z 10013KT 10SM OVC080 14/M04 A2995 RMK AO2 SLP138 T01391044 58015
KOMA 080752Z 11010KT 10SM OVC080 14/M04 A2997 RMK AO2 SLP147 T01441039
KOMA 080652Z 13006KT 10SM OVC075 15/M03 A3000 RMK AO2 SLP153 T01501033
KOMA 080552Z 10010KT 10SM OVC075 15/M02 A2999 RMK AO2 SLP152 T01501022 10194 20144 402060083 58003
KOMA 080452Z 10008KT 10SM BKN080 16/M02 A3000 RMK AO2 SLP154 T01561017
KOMA 080352Z 10007KT 10SM BKN080 14/00 A3000 RMK AO2 SLP159 T01440000
KOMA 080252Z 10005KT 10SM BKN080 16/01 A3000 RMK AO2 SLP157 T01560006 55000
KOMA 080152Z 07005KT 10SM BKN080 17/02 A2999 RMK AO2 SLP152 T01670017
KOMA 080052Z 09004KT 10SM BKN070 18/02 A2999 RMK AO2 SLP152 T01830017
KOMA 072352Z 07004KT 10SM BKN075 19/00 A3000 RMK AO2 SLP157 T01940000 10206 20178 56017
KOMA 072252Z 09005KT 10SM BKN080 20/00 A3001 RMK AO2 SLP161 T02000000
KOMA 072152Z 07003KT 10SM BKN080 20/M01 A3002 RMK AO2 SLP165 T02001011
KOMA 072052Z 09004KT 10SM BKN080 19/M01 A3005 RMK AO2 SLP174 T01941006 56023
KOMA 071952Z 01006KT 10SM BKN085 19/00 A3007 RMK AO2 SLP181 T01890000
KOMA 071852Z 03006G15KT 10SM SCT090 SCT120 20/01 A3009 RMK AO2 SLP187 T02000011
KOMA 071752Z 35008G15KT 10SM SCT090 SCT120 19/01 A3012 RMK AO2 SLP197 T01890006 10189 20100 58011
KOMA 071652Z 07007KT 10SM SCT090 SCT120 18/01 A3014 RMK AO2 SLP204 T01780011
KOMA 071552Z 02011KT 10SM SCT110 16/01 A3014 RMK AO2 SLP205 T01610006
KOMA 071452Z 01011KT 10SM SCT110 16/03 A3015 RMK AO2 SLP209 T01560033 53012
KOMA 071352Z 36010KT 10SM SCT100 13/04 A3014 RMK AO2 SLP205 T01330039
KOMA 071252Z 34004KT 10SM SCT100 13/04 A3012 RMK AO2 SLP198 T01280044
KOMA 071152Z 35010KT 10SM SCT110 11/04 A3012 RMK AO2 SLP196 T01060039 10117 20083 53004
KOMA 071052Z 14004KT 10SM SCT100 11/03 A3009 RMK AO2 SLP188 T01060028
KOMA 070952Z 15004KT 10SM FEW110 09/03 A3009 RMK AO2 SLP190 T00890028
KOMA 070852Z 20003KT 10SM CLR 11/03 A3010 RMK AO2 SLP192 T01060028 56008
KOMA 070752Z 16003KT 10SM FEW110 11/03 A3011 RMK AO2 SLP194 T01060028
KOMA 070652Z 13005KT 10SM BKN110 12/04 A3012 RMK AO2 SLP198 T01170039
KOMA 070552Z 14005KT 10SM OVC110 11/04 A3013 RMK AO2 SLP202 T01110044 10183 20111 402000039 56008
KOMA 070452Z 14005KT 10SM BKN110 11/05 A3013 RMK AO2 SLP204 T01110050
KOMA 070352Z 14005KT 10SM BKN100 12/05 A3015 RMK AO2 SLP209 T01220050
KOMA 070252Z 14005KT 10SM SCT110 12/04 A3015 RMK AO2 SLP212 T01220044 55006
KOMA 070152Z 13004KT 10SM SCT110 14/04 A3015 RMK AO2 SLP211 T01440039
KOMA 070052Z 28003KT 10SM SCT110 17/02 A3015 RMK AO2 SLP212 T01720017
KOMA 062352Z 31006KT 10SM SCT100 18/02 A3017 RMK AO2 SLP218 T01780017 10200 20150 56016
KOMA 062252Z 33009KT 10SM SCT075 18/02 A3018 RMK AO2 SLP223 T01780022
KOMA 062152Z 32012G22KT 10SM SCT075 19/02 A3020 RMK AO2 SLP226 T01890017
KOMA 062052Z 31014G25KT 10SM SCT070 19/02 A3022 RMK AO2 SLP233 T01890022 56028
KOMA 061952Z 35013G20KT 10SM SCT065 17/02 A3024 RMK AO2 SLP242 T01720017
KOMA 061852Z VRB03KT 10SM FEW050 16/02 A3027 RMK AO2 SLP252 T01560022
KOMA 061752Z 36007KT 320V030 10SM FEW045 15/03 A3030 RMK AO2 SLP263 T01500033 10150 20039 58010